createdAt,value
2022-10-18T00:00:17.332Z,11.43
2022-10-18T00:02:47.402Z,11.05
2022-10-18T00:05:18.921Z,13.43
2022-10-18T00:07:48.951Z,9.50
2022-10-18T00:10:18.960Z,13.68
2022-10-18T00:12:51.533Z,15.02
2022-10-18T00:15:24.964Z,12.02
2022-10-18T00:17:55.305Z,13.27
2022-10-18T00:20:25.625Z,13.93
2022-10-18T00:22:55.690Z,15.98
2022-10-18T00:25:25.762Z,11.10
2022-10-18T00:27:58.386Z,12.10
2022-10-18T00:30:28.523Z,13.35
2022-10-18T00:32:58.511Z,10.82
2022-10-18T00:35:29.017Z,11.02
2022-10-18T00:37:59.197Z,11.40
2022-10-18T00:40:29.188Z,14.18
2022-10-18T00:43:01.885Z,14.10
2022-10-18T00:45:32.060Z,14.70
2022-10-18T00:48:05.448Z,14.00
2022-10-18T00:50:37.566Z,11.57
2022-10-18T00:53:11.853Z,12.60
2022-10-18T00:55:42.089Z,11.43
2022-10-18T00:58:16.050Z,13.13
2022-10-18T01:00:46.037Z,13.45
2022-10-18T01:03:16.174Z,11.93
2022-10-18T01:05:49.585Z,11.93
2022-10-18T01:08:32.545Z,11.55
2022-10-18T01:11:16.077Z,10.63
2022-10-18T01:14:00.953Z,11.00
2022-10-18T01:16:39.493Z,11.40
2022-10-18T01:19:24.420Z,11.60
2022-10-18T01:21:58.934Z,14.88
2022-10-18T01:24:53.760Z,12.60
2022-10-18T01:27:49.990Z,10.57
2022-10-18T01:30:51.574Z,13.57
2022-10-18T01:33:31.187Z,11.48
2022-10-18T01:36:06.381Z,13.15
2022-10-18T01:38:39.743Z,10.85
2022-10-18T01:41:15.594Z,12.32
2022-10-18T01:43:48.239Z,10.45
2022-10-18T01:46:24.828Z,10.80
2022-10-18T01:48:56.501Z,10.68
2022-10-18T01:51:29.281Z,11.73
2022-10-18T01:54:00.154Z,9.80
2022-10-18T01:56:39.998Z,11.93
2022-10-18T01:59:33.511Z,13.25
2022-10-18T02:02:18.608Z,11.00
2022-10-18T02:04:54.532Z,11.57
2022-10-18T02:07:32.524Z,14.25
2022-10-18T02:10:09.927Z,11.23
2022-10-18T02:12:43.285Z,10.68
2022-10-18T02:15:17.489Z,11.93
2022-10-18T02:17:53.562Z,11.05
2022-10-18T02:20:29.144Z,11.82
2022-10-18T02:23:01.299Z,11.00
2022-10-18T02:25:34.574Z,10.35
2022-10-18T02:28:05.239Z,9.48
2022-10-18T02:30:43.908Z,20.30
2022-10-18T02:33:22.373Z,11.70
2022-10-18T02:35:58.492Z,10.40
2022-10-18T02:38:30.441Z,11.57
2022-10-18T02:41:01.085Z,11.18
2022-10-18T02:43:31.175Z,10.65
2022-10-18T02:46:01.549Z,11.82
2022-10-18T02:48:34.130Z,13.32
2022-10-18T02:51:04.348Z,11.13
2022-10-18T02:53:34.294Z,11.98
2022-10-18T02:56:04.315Z,10.98
2022-10-18T02:58:34.357Z,11.77
2022-10-18T03:01:04.994Z,11.55
2022-10-18T03:03:37.682Z,13.55
2022-10-18T03:06:07.801Z,10.85
2022-10-18T03:08:39.294Z,11.55
2022-10-18T03:11:09.849Z,10.30
2022-10-18T03:13:39.911Z,13.75
2022-10-18T03:16:09.929Z,12.30
2022-10-18T03:18:42.888Z,10.50
2022-10-18T03:21:12.943Z,10.80
2022-10-18T03:23:42.914Z,11.68
2022-10-18T03:26:13.370Z,11.10
2022-10-18T03:28:43.486Z,12.27
2022-10-18T03:31:13.626Z,12.70
2022-10-18T03:33:46.352Z,10.88
2022-10-18T03:36:16.342Z,11.38
2022-10-18T03:38:46.344Z,11.18
2022-10-18T03:41:16.284Z,10.18
2022-10-18T03:43:46.255Z,12.38
2022-10-18T03:46:16.509Z,10.18
2022-10-18T03:48:49.217Z,13.63
2022-10-18T03:51:19.287Z,13.23
2022-10-18T03:53:49.381Z,16.40
2022-10-18T03:56:19.378Z,14.18
2022-10-18T03:58:49.391Z,10.30
2022-10-18T04:01:19.619Z,11.25
2022-10-18T04:03:52.257Z,10.50
2022-10-18T04:06:22.291Z,11.52
2022-10-18T04:08:52.349Z,13.23
2022-10-18T04:11:22.307Z,13.80
2022-10-18T04:13:52.809Z,10.90
2022-10-18T04:16:25.018Z,13.88
2022-10-18T04:19:00.569Z,12.57
2022-10-18T04:21:30.516Z,13.63
2022-10-18T04:24:01.237Z,14.57
2022-10-18T04:26:31.195Z,14.10
2022-10-18T04:29:01.374Z,12.98
2022-10-18T04:31:31.458Z,14.68
2022-10-18T04:34:04.631Z,12.00
2022-10-18T04:36:34.945Z,12.03
2022-10-18T04:39:04.916Z,11.50
2022-10-18T04:41:34.869Z,11.98
2022-10-18T04:44:04.965Z,12.75
2022-10-18T04:46:34.933Z,10.50
2022-10-18T04:49:09.870Z,15.10
2022-10-18T04:51:40.023Z,11.73
2022-10-18T04:54:10.116Z,12.07
2022-10-18T04:56:40.745Z,14.00
2022-10-18T04:59:10.705Z,13.73
2022-10-18T05:01:40.750Z,12.60
2022-10-18T05:04:13.394Z,13.77
2022-10-18T05:06:43.476Z,13.25
2022-10-18T05:09:13.554Z,15.38
2022-10-18T05:11:43.785Z,13.77
2022-10-18T05:14:13.817Z,12.13
2022-10-18T05:16:44.081Z,13.90
2022-10-18T05:19:16.712Z,12.35
2022-10-18T05:21:47.893Z,15.15
2022-10-18T05:24:17.886Z,15.73
2022-10-18T05:26:47.869Z,19.00
2022-10-18T05:29:18.157Z,16.20
2022-10-18T05:31:48.233Z,22.67
2022-10-18T05:34:22.009Z,16.70
2022-10-18T05:36:52.040Z,16.40
2022-10-18T05:39:22.061Z,13.00
2022-10-18T05:41:52.225Z,14.00
2022-10-18T05:44:22.486Z,18.17
2022-10-18T05:46:52.481Z,17.92
2022-10-18T05:49:25.156Z,20.15
2022-10-18T05:51:55.469Z,20.90
2022-10-18T05:54:25.432Z,13.95
2022-10-18T05:56:55.483Z,13.02
2022-10-18T05:59:25.789Z,15.32
2022-10-18T06:01:55.829Z,15.48
2022-10-18T06:04:28.461Z,16.30
2022-10-18T06:06:58.449Z,17.77
2022-10-18T06:09:28.849Z,19.13
2022-10-18T06:11:58.985Z,14.90
2022-10-18T06:14:29.059Z,15.82
2022-10-18T06:16:59.325Z,13.73
2022-10-18T06:19:31.949Z,17.70
2022-10-18T06:22:02.002Z,18.42
2022-10-18T06:24:31.954Z,20.58
2022-10-18T06:29:54.648Z,13.48
2022-10-18T06:32:24.677Z,15.38
2022-10-18T06:35:00.201Z,13.88
2022-10-18T06:37:33.231Z,15.77
2022-10-18T06:40:05.231Z,14.23
2022-10-18T06:42:35.567Z,15.20
2022-10-18T06:45:09.987Z,13.97
2022-10-18T06:47:39.947Z,18.58
2022-10-18T06:50:13.248Z,13.70
2022-10-18T06:52:43.602Z,13.00
2022-10-18T06:55:13.585Z,15.45
2022-10-18T06:57:43.686Z,16.77
2022-10-18T07:00:15.484Z,15.88
2022-10-18T07:02:45.467Z,14.80
2022-10-18T07:05:18.562Z,14.48
2022-10-18T07:07:50.687Z,15.77
2022-10-18T07:10:23.568Z,15.05
2022-10-18T07:13:07.964Z,17.58
2022-10-18T07:15:43.933Z,15.18
2022-10-18T07:18:14.074Z,13.35
2022-10-18T07:20:46.652Z,13.90
2022-10-18T07:23:21.133Z,15.55
2022-10-18T07:25:51.064Z,14.98
2022-10-18T07:28:21.298Z,13.30
2022-10-18T07:30:51.621Z,14.10
2022-10-18T07:33:21.594Z,12.80
2022-10-18T07:35:54.165Z,16.23
2022-10-18T07:38:24.166Z,10.88
2022-10-18T07:40:59.866Z,21.77
2022-10-18T07:43:30.298Z,10.80
2022-10-18T07:46:01.966Z,13.70
2022-10-18T07:48:32.473Z,11.55
2022-10-18T07:51:05.626Z,11.50
2022-10-18T07:53:36.602Z,14.55
2022-10-18T07:56:09.778Z,9.57
2022-10-18T07:58:40.364Z,12.05
2022-10-18T08:01:11.710Z,10.23
2022-10-18T08:03:41.980Z,11.00
2022-10-18T08:06:18.177Z,13.20
2022-10-18T08:08:49.055Z,12.43
2022-10-18T08:11:21.444Z,9.27
2022-10-18T08:13:52.713Z,14.02
2022-10-18T08:16:24.313Z,17.13
2022-10-18T08:18:55.324Z,13.63
2022-10-18T08:21:29.409Z,11.88
2022-10-18T08:23:59.392Z,12.10
2022-10-18T08:26:29.369Z,14.02
2022-10-18T08:29:10.657Z,14.60
2022-10-18T08:31:47.892Z,11.82
2022-10-18T08:34:19.830Z,13.23
2022-10-18T08:36:52.618Z,10.80
2022-10-18T08:39:23.652Z,12.40
2022-10-18T08:42:15.722Z,10.48
2022-10-18T08:44:48.869Z,13.32
2022-10-18T08:47:22.677Z,13.63
2022-10-18T08:49:57.022Z,12.70
2022-10-18T08:52:36.412Z,13.82
2022-10-18T08:55:14.359Z,10.15
2022-10-18T08:57:44.645Z,11.65
2022-10-18T09:00:19.358Z,11.43
2022-10-18T09:03:10.610Z,13.05
2022-10-18T09:05:53.313Z,11.82
2022-10-18T09:08:58.648Z,9.75
2022-10-18T09:11:46.064Z,11.40
2022-10-18T09:14:31.789Z,14.32
2022-10-18T09:17:15.843Z,12.68
2022-10-18T09:19:55.996Z,9.60
2022-10-18T09:22:34.961Z,11.68
2022-10-18T09:25:19.101Z,10.55
2022-10-18T09:27:56.153Z,10.05
2022-10-18T09:30:42.601Z,8.10
2022-10-18T09:33:31.413Z,10.55
2022-10-18T09:36:04.881Z,9.77
2022-10-18T09:38:40.129Z,8.68
2022-10-18T09:41:18.921Z,9.45
2022-10-18T09:43:59.197Z,9.00
2022-10-18T09:46:33.330Z,9.95
2022-10-18T09:49:07.489Z,9.38
2022-10-18T09:51:40.237Z,10.02
2022-10-18T09:54:23.118Z,12.57
2022-10-18T09:57:01.130Z,9.20
2022-10-18T09:59:38.491Z,10.70
2022-10-18T10:02:09.534Z,9.40
2022-10-18T10:04:39.638Z,8.95
2022-10-18T10:07:12.379Z,9.05
2022-10-18T10:09:47.264Z,13.37
2022-10-18T10:12:34.528Z,8.20
2022-10-18T10:15:13.193Z,8.43
2022-10-18T10:17:43.421Z,8.25
2022-10-18T10:20:21.684Z,9.10
2022-10-18T10:22:53.787Z,9.18
2022-10-18T10:25:28.795Z,8.32
2022-10-18T10:28:06.577Z,7.32
2022-10-18T10:30:38.671Z,8.75
2022-10-18T10:33:09.547Z,10.00
2022-10-18T10:35:56.591Z,9.95
2022-10-18T10:38:28.321Z,7.00
2022-10-18T10:40:58.947Z,11.32
2022-10-18T10:43:39.618Z,8.00
2022-10-18T10:46:12.709Z,8.38
2022-10-18T10:48:49.441Z,8.18
2022-10-18T10:51:31.054Z,10.38
2022-10-18T10:54:04.454Z,11.60
2022-10-18T10:56:36.824Z,10.20
2022-10-18T10:59:17.314Z,13.05
2022-10-18T11:01:49.912Z,8.63
2022-10-18T11:04:29.266Z,9.75
2022-10-18T11:07:06.926Z,9.20
2022-10-18T11:09:46.570Z,10.65
2022-10-18T11:12:26.818Z,8.65
2022-10-18T11:15:10.084Z,8.82
2022-10-18T11:17:45.710Z,9.60
2022-10-18T11:20:24.318Z,8.63
2022-10-18T11:23:03.473Z,8.73
2022-10-18T11:25:51.491Z,7.63
2022-10-18T11:28:31.550Z,9.07
2022-10-18T11:31:15.000Z,8.45
2022-10-18T11:34:08.635Z,11.93
2022-10-18T11:37:15.862Z,8.40
2022-10-18T11:40:01.541Z,8.18
2022-10-18T11:42:40.089Z,9.07
2022-10-18T11:48:49.505Z,9.43
2022-10-18T11:51:38.688Z,9.23
2022-10-18T11:54:32.815Z,11.23
2022-10-18T11:57:16.433Z,9.45
2022-10-18T11:59:58.673Z,7.07
2022-10-18T12:02:57.263Z,7.60
2022-10-18T12:05:31.880Z,8.95
2022-10-18T12:08:05.568Z,7.53
2022-10-18T12:10:52.688Z,9.18
2022-10-18T12:13:33.537Z,11.07
2022-10-18T12:16:07.032Z,8.32
2022-10-18T12:18:46.131Z,8.50
2022-10-18T12:21:25.467Z,7.93
2022-10-18T12:23:58.407Z,7.15
2022-10-18T12:26:32.448Z,7.70
2022-10-18T12:29:16.784Z,8.40
2022-10-18T12:31:51.115Z,8.88
2022-10-18T12:38:03.692Z,6.95
2022-10-18T12:40:38.978Z,6.80
2022-10-18T12:43:14.925Z,9.07
2022-10-18T12:45:52.719Z,9.68
2022-10-18T12:48:42.717Z,7.00
2022-10-18T12:51:17.861Z,7.95
2022-10-18T12:53:57.117Z,9.00
2022-10-18T12:56:42.029Z,8.38
2022-10-18T12:59:54.022Z,6.32
2022-10-18T13:02:34.267Z,8.50
2022-10-18T13:05:53.556Z,8.90
2022-10-18T13:08:42.162Z,10.07
2022-10-18T13:11:39.010Z,10.77
2022-10-18T13:14:48.188Z,7.80
2022-10-18T13:17:36.557Z,7.45
2022-10-18T13:20:27.307Z,9.88
2022-10-18T13:23:28.240Z,8.23
2022-10-18T13:26:15.794Z,7.57
2022-10-18T13:28:56.055Z,7.22
2022-10-18T13:31:33.645Z,8.05
2022-10-18T13:34:30.916Z,8.07
2022-10-18T13:37:05.886Z,6.93
2022-10-18T13:39:36.588Z,7.57
2022-10-18T13:42:23.699Z,7.93
2022-10-18T13:44:56.385Z,12.90
2022-10-18T13:47:37.468Z,11.13
2022-10-18T13:50:30.623Z,7.45
2022-10-18T13:53:30.495Z,9.57
2022-10-18T13:56:22.822Z,8.15
2022-10-18T13:59:14.446Z,8.55
2022-10-18T14:02:02.880Z,7.43
2022-10-18T14:05:23.090Z,7.45
2022-10-18T14:07:53.879Z,8.73
2022-10-18T14:10:43.860Z,8.32
2022-10-18T14:15:55.574Z,9.48
2022-10-18T14:18:32.027Z,10.73
2022-10-18T14:21:13.729Z,7.93
2022-10-18T14:23:47.580Z,9.38
2022-10-18T14:26:19.662Z,9.05
2022-10-18T14:29:05.863Z,9.32
2022-10-18T14:31:38.990Z,8.30
2022-10-18T14:34:20.625Z,6.65
2022-10-18T14:36:51.993Z,7.78
2022-10-18T14:39:25.085Z,7.63
2022-10-18T14:41:56.609Z,8.05
2022-10-18T14:44:30.322Z,7.93
2022-10-18T14:47:05.434Z,8.85
2022-10-18T14:49:45.783Z,7.85
2022-10-18T14:52:18.832Z,9.63
2022-10-18T14:54:49.449Z,8.68
2022-10-18T14:57:22.541Z,7.03
2022-10-18T14:59:58.194Z,8.43
2022-10-18T15:02:30.042Z,9.65
2022-10-18T15:05:09.286Z,8.18
2022-10-18T15:07:39.812Z,8.95
2022-10-18T15:10:19.764Z,11.13
2022-10-18T15:13:08.707Z,11.98
2022-10-18T15:15:39.454Z,7.60
2022-10-18T15:18:10.998Z,8.90
2022-10-18T15:20:43.601Z,10.48
2022-10-18T15:23:26.466Z,11.00
2022-10-18T15:26:06.456Z,10.70
2022-10-18T15:28:39.755Z,12.68
2022-10-18T15:31:28.316Z,9.67
2022-10-18T15:34:11.655Z,9.68
2022-10-18T15:39:34.659Z,9.82
2022-10-18T15:42:05.499Z,14.15
2022-10-18T15:44:36.951Z,11.70
2022-10-18T15:47:21.851Z,17.95
2022-10-18T15:49:55.648Z,9.52
2022-10-18T15:52:38.789Z,11.80
2022-10-18T15:55:39.175Z,9.80
2022-10-18T15:58:14.350Z,7.72
2022-10-18T16:00:45.500Z,9.45
2022-10-18T16:03:16.174Z,12.23
2022-10-18T16:05:46.698Z,12.60
2022-10-18T16:08:28.902Z,7.10
2022-10-18T16:10:59.683Z,10.73
2022-10-18T16:13:31.358Z,7.53
2022-10-18T16:16:02.374Z,9.73
2022-10-18T16:18:32.422Z,8.80
2022-10-18T16:21:02.502Z,14.80
2022-10-18T16:23:35.235Z,15.93
2022-10-18T16:26:05.329Z,11.50
2022-10-18T16:28:36.008Z,15.52
2022-10-18T16:31:06.825Z,11.60
2022-10-18T16:33:37.115Z,14.32
2022-10-18T16:36:07.665Z,13.85
2022-10-18T16:38:40.337Z,16.35
2022-10-18T16:41:11.639Z,16.40
2022-10-18T16:43:42.255Z,11.02
2022-10-18T16:46:17.787Z,11.45
2022-10-18T16:48:48.997Z,12.18
2022-10-18T16:51:19.766Z,12.82
2022-10-18T16:53:53.525Z,15.13
2022-10-18T16:56:33.195Z,15.77
2022-10-18T16:59:03.914Z,14.55
2022-10-18T17:01:34.047Z,11.93
2022-10-18T17:04:04.106Z,13.30
2022-10-18T17:06:36.373Z,18.98
2022-10-18T17:09:09.326Z,18.85
2022-10-18T17:11:39.368Z,17.95
2022-10-18T17:14:09.374Z,16.20
2022-10-18T17:16:40.287Z,17.50
2022-10-18T17:19:13.471Z,16.50
2022-10-18T17:21:43.826Z,15.50
2022-10-18T17:24:16.555Z,18.70
2022-10-18T17:26:52.060Z,15.00
2022-10-18T17:29:23.021Z,24.10
2022-10-18T17:31:53.259Z,22.63
2022-10-18T17:34:26.349Z,17.42
2022-10-18T17:36:56.629Z,17.60
2022-10-18T17:39:35.995Z,19.95
2022-10-18T17:42:06.136Z,21.08
2022-10-18T17:44:43.364Z,15.63
2022-10-18T17:47:13.405Z,16.92
2022-10-18T17:49:45.078Z,19.25
2022-10-18T17:52:19.946Z,19.40
2022-10-18T17:54:52.602Z,18.70
2022-10-18T17:57:22.706Z,21.05
2022-10-18T17:59:54.948Z,20.23
2022-10-18T18:02:25.198Z,18.38
2022-10-18T18:04:57.481Z,31.13
2022-10-18T18:07:27.580Z,20.77
2022-10-18T18:10:00.333Z,18.50
2022-10-18T18:12:30.534Z,18.27
2022-10-18T18:15:00.666Z,19.75
2022-10-18T18:17:34.338Z,18.10
2022-10-18T18:20:10.907Z,16.45
2022-10-18T18:22:42.676Z,18.48
2022-10-18T18:25:15.972Z,22.52
2022-10-18T18:27:46.198Z,16.27
2022-10-18T18:30:19.397Z,19.03
2022-10-18T18:32:49.387Z,21.75
2022-10-18T18:35:19.493Z,18.55
2022-10-18T18:37:53.247Z,18.05
2022-10-18T18:40:26.362Z,16.70
2022-10-18T18:43:07.147Z,17.73
2022-10-18T18:45:53.394Z,15.13
2022-10-18T18:48:23.420Z,18.85
2022-10-18T18:50:53.504Z,17.00
2022-10-18T18:53:27.215Z,14.77
2022-10-18T18:56:08.247Z,19.58
2022-10-18T18:58:40.204Z,17.58
2022-10-18T19:01:12.215Z,14.85
2022-10-18T19:03:43.341Z,13.80
2022-10-18T19:06:15.889Z,15.10
2022-10-18T19:08:47.586Z,13.77
2022-10-18T19:11:22.001Z,15.35
2022-10-18T19:13:52.617Z,14.10
2022-10-18T19:16:26.005Z,12.35
2022-10-18T19:19:01.894Z,12.15
2022-10-18T19:21:34.637Z,13.35
2022-10-18T19:24:08.512Z,12.15
2022-10-18T19:26:44.904Z,12.30
2022-10-18T19:29:17.599Z,15.10
2022-10-18T19:31:48.213Z,12.63
2022-10-18T19:34:19.919Z,12.80
2022-10-18T19:36:51.246Z,15.32
2022-10-18T19:39:23.271Z,13.68
2022-10-18T19:41:57.963Z,14.57
2022-10-18T19:44:30.940Z,16.60
2022-10-18T19:47:01.381Z,12.23
2022-10-18T19:49:31.896Z,13.70
2022-10-18T19:52:02.155Z,14.07
2022-10-18T19:54:33.873Z,15.00
2022-10-18T19:57:07.110Z,12.38
2022-10-18T19:59:37.724Z,15.20
2022-10-18T20:02:07.930Z,12.20
2022-10-18T20:04:38.359Z,13.13
2022-10-18T20:07:08.470Z,15.48
2022-10-18T20:09:40.442Z,12.02
2022-10-18T20:12:13.116Z,13.07
2022-10-18T20:14:43.150Z,10.85
2022-10-18T20:17:13.781Z,21.20
2022-10-18T20:19:43.971Z,13.77
2022-10-18T20:22:14.136Z,12.52
2022-10-18T20:24:44.126Z,12.55
2022-10-18T20:27:16.671Z,11.65
2022-10-18T20:29:54.197Z,12.65
2022-10-18T20:32:24.602Z,11.40
2022-10-18T20:34:54.697Z,10.25
2022-10-18T20:37:24.741Z,11.77
2022-10-18T20:39:55.178Z,10.95
2022-10-18T20:42:27.906Z,15.57
2022-10-18T20:44:57.997Z,13.25
2022-10-18T20:47:28.078Z,12.18
2022-10-18T20:49:59.389Z,10.88
2022-10-18T20:52:29.933Z,11.68
2022-10-18T20:54:59.959Z,13.27
2022-10-18T20:57:36.522Z,11.85
2022-10-18T21:00:13.021Z,10.50
2022-10-18T21:02:43.034Z,9.95
2022-10-18T21:05:13.030Z,12.25
2022-10-18T21:07:43.354Z,11.30
2022-10-18T21:10:14.812Z,13.90
2022-10-18T21:12:49.728Z,12.45
2022-10-18T21:15:19.861Z,11.60
2022-10-18T21:17:53.191Z,11.50
2022-10-18T21:20:25.213Z,12.60
2022-10-18T21:22:57.136Z,10.10
2022-10-18T21:25:27.225Z,11.43
2022-10-18T21:27:59.846Z,12.90
2022-10-18T21:30:30.457Z,10.18
2022-10-18T21:33:00.453Z,13.10
2022-10-18T21:35:30.403Z,12.23
2022-10-18T21:38:00.376Z,14.68
2022-10-18T21:40:30.519Z,10.57
2022-10-18T21:43:03.082Z,14.05
2022-10-18T21:45:33.068Z,10.88
2022-10-18T21:48:03.109Z,10.88
2022-10-18T21:50:33.142Z,13.18
2022-10-18T21:53:03.078Z,9.32
2022-10-18T21:55:33.101Z,13.00
2022-10-18T21:58:06.533Z,11.35
2022-10-18T22:00:36.828Z,9.25
2022-10-18T22:03:10.459Z,11.00
2022-10-18T22:05:40.750Z,12.43
2022-10-18T22:08:10.989Z,10.63
2022-10-18T22:10:41.037Z,11.55
2022-10-18T22:13:13.698Z,11.02
2022-10-18T22:15:43.724Z,11.52
2022-10-18T22:18:13.741Z,11.50
2022-10-18T22:20:58.529Z,10.13
2022-10-18T22:23:34.805Z,12.90
2022-10-18T22:26:07.679Z,12.93
2022-10-18T22:28:41.063Z,10.00
2022-10-18T22:31:17.213Z,12.82
2022-10-18T22:33:48.847Z,12.43
2022-10-18T22:36:18.802Z,10.75
2022-10-18T22:38:48.816Z,12.48
2022-10-18T22:41:19.184Z,8.57
2022-10-18T22:43:53.198Z,11.35
2022-10-18T22:48:53.330Z,12.25
2022-10-18T22:51:23.643Z,11.55
2022-10-18T22:53:53.684Z,12.90
2022-10-18T22:56:25.048Z,15.52
2022-10-18T22:58:58.238Z,9.25
2022-10-18T23:01:28.270Z,13.10
2022-10-18T23:03:59.522Z,15.15
2022-10-18T23:06:30.852Z,13.48
2022-10-18T23:09:05.000Z,11.25
2022-10-18T23:11:37.069Z,12.48
2022-10-18T23:14:10.249Z,10.68
2022-10-18T23:16:40.299Z,13.68
2022-10-18T23:19:10.538Z,11.98
2022-10-18T23:21:40.553Z,10.57
2022-10-18T23:24:10.532Z,12.63
2022-10-18T23:26:40.565Z,11.73
2022-10-18T23:29:13.145Z,9.35
2022-10-18T23:31:43.274Z,11.35
2022-10-18T23:34:13.377Z,12.27
2022-10-18T23:39:14.531Z,9.38
2022-10-18T23:41:44.612Z,11.82
2022-10-18T23:44:17.569Z,11.20
2022-10-18T23:46:47.601Z,8.80
2022-10-18T23:49:17.967Z,10.60
2022-10-18T23:51:48.095Z,8.80
2022-10-18T23:54:18.059Z,11.70
2022-10-18T23:56:50.991Z,10.27
2022-10-18T23:59:26.935Z,9.93
